sensor_id;sensor_type;location;lat;lon;timestamp;pressure;altitude;pressure_sealevel;temperature;humidity
36192;BME280;22233;42.708;23.360;2023-05-19T00:01:09;95639.63;;;13.00;76.49
36192;BME280;22233;42.708;23.360;2023-05-19T00:03:35;95648.13;;;12.98;77.87
36192;BME280;22233;42.708;23.360;2023-05-19T00:06:05;95644.59;;;12.98;77.56
36192;BME280;22233;42.708;23.360;2023-05-19T00:08:33;95637.50;;;13.14;76.40
36192;BME280;22233;42.708;23.360;2023-05-19T00:10:59;95632.06;;;13.14;76.52
36192;BME280;22233;42.708;23.360;2023-05-19T00:13:26;95641.38;;;12.87;76.96
36192;BME280;22233;42.708;23.360;2023-05-19T00:15:52;95631.09;;;13.02;76.96
36192;BME280;22233;42.708;23.360;2023-05-19T00:18:17;95633.22;;;12.70;78.20
36192;BME280;22233;42.708;23.360;2023-05-19T00:20:43;95632.25;;;12.74;77.18
36192;BME280;22233;42.708;23.360;2023-05-19T00:23:09;95634.94;;;13.18;84.25
36192;BME280;22233;42.708;23.360;2023-05-19T00:25:35;95622.31;;;12.96;77.50
36192;BME280;22233;42.708;23.360;2023-05-19T00:28:01;95627.75;;;12.96;77.60
36192;BME280;22233;42.708;23.360;2023-05-19T00:30:27;95626.59;;;13.06;76.32
36192;BME280;22233;42.708;23.360;2023-05-19T00:32:53;95613.66;;;12.68;78.17
36192;BME280;22233;42.708;23.360;2023-05-19T00:35:19;95626.00;;;12.56;78.79
36192;BME280;22233;42.708;23.360;2023-05-19T00:37:46;95637.38;;;12.85;77.79
36192;BME280;22233;42.708;23.360;2023-05-19T00:40:11;95623.59;;;12.72;78.17
36192;BME280;22233;42.708;23.360;2023-05-19T00:42:37;95623.91;;;12.53;79.42
36192;BME280;22233;42.708;23.360;2023-05-19T00:45:03;95617.00;;;12.30;79.68
36192;BME280;22233;42.708;23.360;2023-05-19T00:47:29;95604.19;;;12.39;79.02
36192;BME280;22233;42.708;23.360;2023-05-19T00:49:55;95621.53;;;12.52;78.84
36192;BME280;22233;42.708;23.360;2023-05-19T00:52:20;95617.50;;;12.58;78.96
36192;BME280;22233;42.708;23.360;2023-05-19T00:54:46;95621.84;;;12.50;79.38
36192;BME280;22233;42.708;23.360;2023-05-19T00:57:13;95619.09;;;12.59;78.30
36192;BME280;22233;42.708;23.360;2023-05-19T00:59:39;95605.47;;;12.59;77.86
36192;BME280;22233;42.708;23.360;2023-05-19T01:02:05;95620.88;;;12.55;79.65
36192;BME280;22233;42.708;23.360;2023-05-19T01:04:32;95623.63;;;12.64;78.31
36192;BME280;22233;42.708;23.360;2023-05-19T01:06:59;95612.38;;;12.65;77.83
36192;BME280;22233;42.708;23.360;2023-05-19T01:09:25;95624.09;;;12.66;78.09
36192;BME280;22233;42.708;23.360;2023-05-19T01:11:51;95631.44;;;12.39;79.45
36192;BME280;22233;42.708;23.360;2023-05-19T01:14:18;95623.59;;;12.55;78.98
36192;BME280;22233;42.708;23.360;2023-05-19T01:16:56;95634.34;;;12.60;78.13
36192;BME280;22233;42.708;23.360;2023-05-19T01:22:46;95622.13;;;12.23;80.78
36192;BME280;22233;42.708;23.360;2023-05-19T01:30:54;95629.16;;;12.15;80.61
36192;BME280;22233;42.708;23.360;2023-05-19T01:33:21;95615.34;;;12.03;81.10
36192;BME280;22233;42.708;23.360;2023-05-19T01:35:49;95624.19;;;12.17;80.82
36192;BME280;22233;42.708;23.360;2023-05-19T01:38:16;95640.09;;;12.41;79.84
36192;BME280;22233;42.708;23.360;2023-05-19T01:40:44;95634.81;;;12.45;79.61
36192;BME280;22233;42.708;23.360;2023-05-19T01:43:16;95642.00;;;12.32;79.02
36192;BME280;22233;42.708;23.360;2023-05-19T01:45:42;95630.78;;;12.25;80.38
36192;BME280;22233;42.708;23.360;2023-05-19T01:48:08;95624.84;;;12.14;80.51
36192;BME280;22233;42.708;23.360;2023-05-19T01:50:34;95627.25;;;12.15;80.53
36192;BME280;22233;42.708;23.360;2023-05-19T01:53:00;95641.31;;;12.00;80.84
36192;BME280;22233;42.708;23.360;2023-05-19T01:55:25;95630.00;;;11.84;82.11
36192;BME280;22233;42.708;23.360;2023-05-19T02:06:21;95625.53;;;11.48;83.21
36192;BME280;22233;42.708;23.360;2023-05-19T02:09:12;95644.22;;;11.72;81.73
36192;BME280;22233;42.708;23.360;2023-05-19T02:11:55;95631.50;;;11.99;80.24
36192;BME280;22233;42.708;23.360;2023-05-19T02:17:11;95635.41;;;12.15;80.32
36192;BME280;22233;42.708;23.360;2023-05-19T02:19:38;95636.25;;;11.85;81.24
36192;BME280;22233;42.708;23.360;2023-05-19T02:22:04;95631.09;;;11.74;82.43
36192;BME280;22233;42.708;23.360;2023-05-19T02:24:30;95639.13;;;11.79;80.97
36192;BME280;22233;42.708;23.360;2023-05-19T02:26:55;95638.22;;;11.93;81.45
36192;BME280;22233;42.708;23.360;2023-05-19T02:29:21;95638.19;;;11.84;81.29
36192;BME280;22233;42.708;23.360;2023-05-19T02:31:46;95628.41;;;11.83;81.17
36192;BME280;22233;42.708;23.360;2023-05-19T02:34:12;95632.50;;;11.63;81.41
36192;BME280;22233;42.708;23.360;2023-05-19T02:36:40;95628.09;;;11.85;80.82
36192;BME280;22233;42.708;23.360;2023-05-19T02:39:08;95642.25;;;11.95;80.51
36192;BME280;22233;42.708;23.360;2023-05-19T02:41:35;95644.50;;;11.93;81.39
36192;BME280;22233;42.708;23.360;2023-05-19T02:44:00;95636.50;;;11.66;82.18
36192;BME280;22233;42.708;23.360;2023-05-19T02:46:25;95656.13;;;11.85;81.21
36192;BME280;22233;42.708;23.360;2023-05-19T02:48:51;95655.25;;;11.67;81.92
36192;BME280;22233;42.708;23.360;2023-05-19T02:51:17;95636.56;;;11.43;83.58
36192;BME280;22233;42.708;23.360;2023-05-19T02:53:42;95628.69;;;11.73;82.00
36192;BME280;22233;42.708;23.360;2023-05-19T02:56:08;95643.06;;;11.65;81.99
36192;BME280;22233;42.708;23.360;2023-05-19T02:58:33;95658.19;;;11.88;81.71
36192;BME280;22233;42.708;23.360;2023-05-19T03:00:59;95651.09;;;11.70;81.46
36192;BME280;22233;42.708;23.360;2023-05-19T03:03:25;95648.50;;;11.65;82.05
36192;BME280;22233;42.708;23.360;2023-05-19T03:05:51;95657.22;;;11.84;82.32
36192;BME280;22233;42.708;23.360;2023-05-19T03:08:18;95659.50;;;11.91;81.04
36192;BME280;22233;42.708;23.360;2023-05-19T03:10:44;95657.53;;;11.83;81.64
36192;BME280;22233;42.708;23.360;2023-05-19T03:13:10;95663.88;;;12.01;80.67
36192;BME280;22233;42.708;23.360;2023-05-19T03:15:36;95652.03;;;12.05;80.70
36192;BME280;22233;42.708;23.360;2023-05-19T03:18:01;95638.41;;;12.05;79.17
36192;BME280;22233;42.708;23.360;2023-05-19T03:20:27;95662.59;;;12.07;79.89
36192;BME280;22233;42.708;23.360;2023-05-19T03:22:54;95650.41;;;11.95;79.96
36192;BME280;22233;42.708;23.360;2023-05-19T03:25:20;95661.03;;;11.74;81.45
36192;BME280;22233;42.708;23.360;2023-05-19T03:27:45;95660.34;;;11.69;82.74
36192;BME280;22233;42.708;23.360;2023-05-19T03:30:11;95651.41;;;11.77;81.42
36192;BME280;22233;42.708;23.360;2023-05-19T03:32:37;95643.22;;;11.99;81.17
36192;BME280;22233;42.708;23.360;2023-05-19T03:35:03;95659.31;;;12.36;79.22
36192;BME280;22233;42.708;23.360;2023-05-19T03:37:29;95642.63;;;12.20;79.11
36192;BME280;22233;42.708;23.360;2023-05-19T03:39:55;95659.63;;;12.34;79.80
36192;BME280;22233;42.708;23.360;2023-05-19T03:42:21;95657.94;;;11.98;80.74
36192;BME280;22233;42.708;23.360;2023-05-19T03:44:47;95662.00;;;12.10;80.45
36192;BME280;22233;42.708;23.360;2023-05-19T03:47:12;95667.13;;;12.20;80.38
36192;BME280;22233;42.708;23.360;2023-05-19T03:49:38;95658.66;;;12.22;78.92
36192;BME280;22233;42.708;23.360;2023-05-19T03:52:03;95667.94;;;12.21;80.67
36192;BME280;22233;42.708;23.360;2023-05-19T03:54:29;95665.03;;;12.08;80.09
36192;BME280;22233;42.708;23.360;2023-05-19T03:56:54;95672.00;;;12.58;79.15
36192;BME280;22233;42.708;23.360;2023-05-19T03:59:20;95676.72;;;12.09;80.75
36192;BME280;22233;42.708;23.360;2023-05-19T04:01:45;95668.53;;;12.09;80.05
36192;BME280;22233;42.708;23.360;2023-05-19T04:04:10;95669.69;;;12.16;80.09
36192;BME280;22233;42.708;23.360;2023-05-19T04:06:36;95667.97;;;12.55;78.23
36192;BME280;22233;42.708;23.360;2023-05-19T04:09:02;95692.84;;;12.71;77.89
36192;BME280;22233;42.708;23.360;2023-05-19T04:11:29;95663.84;;;12.67;77.57
36192;BME280;22233;42.708;23.360;2023-05-19T04:13:54;95685.63;;;12.58;77.95
36192;BME280;22233;42.708;23.360;2023-05-19T04:16:20;95668.31;;;12.54;79.15
36192;BME280;22233;42.708;23.360;2023-05-19T04:18:45;95677.59;;;12.44;78.47
36192;BME280;22233;42.708;23.360;2023-05-19T04:21:11;95680.03;;;12.72;78.07
36192;BME280;22233;42.708;23.360;2023-05-19T04:23:36;95686.44;;;12.85;76.96
36192;BME280;22233;42.708;23.360;2023-05-19T04:26:02;95674.75;;;12.93;77.31
36192;BME280;22233;42.708;23.360;2023-05-19T04:28:28;95674.59;;;12.72;78.11
36192;BME280;22233;42.708;23.360;2023-05-19T04:30:54;95688.38;;;12.93;77.36
36192;BME280;22233;42.708;23.360;2023-05-19T04:33:20;95685.63;;;13.02;76.40
36192;BME280;22233;42.708;23.360;2023-05-19T04:35:46;95690.78;;;13.29;76.70
36192;BME280;22233;42.708;23.360;2023-05-19T04:38:11;95691.25;;;13.23;76.34
36192;BME280;22233;42.708;23.360;2023-05-19T04:40:37;95695.59;;;13.41;75.79
36192;BME280;22233;42.708;23.360;2023-05-19T04:43:06;95685.66;;;12.84;77.91
36192;BME280;22233;42.708;23.360;2023-05-19T04:45:33;95682.91;;;12.75;79.00
36192;BME280;22233;42.708;23.360;2023-05-19T04:47:59;95690.59;;;13.17;76.97
36192;BME280;22233;42.708;23.360;2023-05-19T04:50:24;95702.81;;;12.85;78.12
36192;BME280;22233;42.708;23.360;2023-05-19T04:52:50;95694.31;;;12.95;77.66
36192;BME280;22233;42.708;23.360;2023-05-19T04:55:15;95691.09;;;13.10;76.61
36192;BME280;22233;42.708;23.360;2023-05-19T04:57:41;95687.25;;;13.11;76.50
36192;BME280;22233;42.708;23.360;2023-05-19T05:00:07;95691.25;;;13.31;76.62
36192;BME280;22233;42.708;23.360;2023-05-19T05:02:36;95683.56;;;13.33;76.12
36192;BME280;22233;42.708;23.360;2023-05-19T05:05:01;95691.41;;;13.44;75.95
36192;BME280;22233;42.708;23.360;2023-05-19T05:07:27;95698.41;;;13.62;75.53
36192;BME280;22233;42.708;23.360;2023-05-19T05:09:52;95681.63;;;13.43;75.61
36192;BME280;22233;42.708;23.360;2023-05-19T05:12:18;95709.81;;;13.73;75.34
36192;BME280;22233;42.708;23.360;2023-05-19T05:14:44;95705.13;;;13.73;75.58
36192;BME280;22233;42.708;23.360;2023-05-19T05:17:11;95701.91;;;13.80;74.94
36192;BME280;22233;42.708;23.360;2023-05-19T05:19:37;95681.47;;;13.86;74.73
36192;BME280;22233;42.708;23.360;2023-05-19T05:22:03;95694.22;;;13.73;75.19
36192;BME280;22233;42.708;23.360;2023-05-19T05:24:29;95695.47;;;13.76;75.48
36192;BME280;22233;42.708;23.360;2023-05-19T05:26:56;95689.13;;;14.02;74.17
36192;BME280;22233;42.708;23.360;2023-05-19T05:29:23;95700.47;;;13.83;74.24
36192;BME280;22233;42.708;23.360;2023-05-19T05:31:48;95695.75;;;14.01;73.85
36192;BME280;22233;42.708;23.360;2023-05-19T05:34:14;95703.19;;;13.74;74.78
36192;BME280;22233;42.708;23.360;2023-05-19T05:36:39;95700.72;;;13.98;73.82
36192;BME280;22233;42.708;23.360;2023-05-19T05:39:05;95698.88;;;13.73;75.24
36192;BME280;22233;42.708;23.360;2023-05-19T05:41:31;95690.81;;;13.85;74.17
36192;BME280;22233;42.708;23.360;2023-05-19T05:44:02;95702.84;;;13.93;73.76
36192;BME280;22233;42.708;23.360;2023-05-19T05:46:28;95707.19;;;14.24;73.23
36192;BME280;22233;42.708;23.360;2023-05-19T05:48:54;95697.28;;;14.10;72.25
36192;BME280;22233;42.708;23.360;2023-05-19T05:51:21;95706.06;;;14.25;72.94
36192;BME280;22233;42.708;23.360;2023-05-19T05:53:50;95700.16;;;14.14;72.40
36192;BME280;22233;42.708;23.360;2023-05-19T05:56:17;95693.22;;;14.25;72.62
36192;BME280;22233;42.708;23.360;2023-05-19T05:58:42;95715.09;;;14.46;72.97
36192;BME280;22233;42.708;23.360;2023-05-19T06:01:08;95706.38;;;15.25;78.09
36192;BME280;22233;42.708;23.360;2023-05-19T06:03:39;95712.31;;;15.93;77.32
36192;BME280;22233;42.708;23.360;2023-05-19T06:06:05;95722.72;;;16.12;74.65
36192;BME280;22233;42.708;23.360;2023-05-19T06:08:31;95721.25;;;16.40;70.90
36192;BME280;22233;42.708;23.360;2023-05-19T06:10:56;95726.38;;;16.78;67.64
36192;BME280;22233;42.708;23.360;2023-05-19T06:13:22;95717.25;;;16.25;65.45
36192;BME280;22233;42.708;23.360;2023-05-19T06:15:50;95714.69;;;15.83;66.04
36192;BME280;22233;42.708;23.360;2023-05-19T06:18:16;95722.59;;;15.30;68.48
36192;BME280;22233;42.708;23.360;2023-05-19T06:20:42;95706.69;;;15.44;67.69
36192;BME280;22233;42.708;23.360;2023-05-19T06:23:07;95716.22;;;15.71;67.68
36192;BME280;22233;42.708;23.360;2023-05-19T06:25:33;95711.75;;;15.88;67.18
36192;BME280;22233;42.708;23.360;2023-05-19T06:27:58;95724.19;;;15.64;67.85
36192;BME280;22233;42.708;23.360;2023-05-19T06:30:24;95706.28;;;15.67;67.20
36192;BME280;22233;42.708;23.360;2023-05-19T06:32:49;95715.41;;;15.71;67.85
36192;BME280;22233;42.708;23.360;2023-05-19T06:35:15;95720.09;;;16.04;66.71
36192;BME280;22233;42.708;23.360;2023-05-19T06:37:40;95733.63;;;15.54;67.48
36192;BME280;22233;42.708;23.360;2023-05-19T06:40:06;95718.03;;;15.67;66.58
36192;BME280;22233;42.708;23.360;2023-05-19T06:42:32;95718.38;;;15.99;66.00
36192;BME280;22233;42.708;23.360;2023-05-19T06:44:57;95730.16;;;16.12;63.49
36192;BME280;22233;42.708;23.360;2023-05-19T06:47:23;95726.00;;;15.93;65.48
36192;BME280;22233;42.708;23.360;2023-05-19T06:49:48;95722.84;;;16.16;65.02
36192;BME280;22233;42.708;23.360;2023-05-19T06:52:20;95723.66;;;16.29;64.43
36192;BME280;22233;42.708;23.360;2023-05-19T06:54:47;95735.66;;;16.49;64.85
36192;BME280;22233;42.708;23.360;2023-05-19T06:57:13;95732.78;;;16.21;65.03
36192;BME280;22233;42.708;23.360;2023-05-19T06:59:38;95727.31;;;16.94;67.15
36192;BME280;22233;42.708;23.360;2023-05-19T07:02:06;95736.50;;;17.27;62.92
36192;BME280;22233;42.708;23.360;2023-05-19T07:04:32;95726.19;;;17.24;62.07
36192;BME280;22233;42.708;23.360;2023-05-19T07:06:57;95729.34;;;16.73;62.83
36192;BME280;22233;42.708;23.360;2023-05-19T07:09:23;95737.25;;;16.99;61.95
36192;BME280;22233;42.708;23.360;2023-05-19T07:11:48;95738.41;;;17.26;62.01
36192;BME280;22233;42.708;23.360;2023-05-19T07:14:14;95733.44;;;17.04;62.23
36192;BME280;22233;42.708;23.360;2023-05-19T07:16:39;95711.06;;;17.30;62.80
36192;BME280;22233;42.708;23.360;2023-05-19T07:19:05;95732.47;;;17.52;59.68
36192;BME280;22233;42.708;23.360;2023-05-19T07:21:30;95741.75;;;17.20;61.32
36192;BME280;22233;42.708;23.360;2023-05-19T07:23:55;95741.25;;;17.30;60.94
36192;BME280;22233;42.708;23.360;2023-05-19T07:26:21;95735.09;;;17.33;61.15
36192;BME280;22233;42.708;23.360;2023-05-19T07:28:47;95722.81;;;17.43;59.47
36192;BME280;22233;42.708;23.360;2023-05-19T07:31:12;95742.78;;;17.55;59.42
36192;BME280;22233;42.708;23.360;2023-05-19T07:33:38;95729.88;;;17.72;59.15
36192;BME280;22233;42.708;23.360;2023-05-19T07:36:03;95739.75;;;17.73;59.35
36192;BME280;22233;42.708;23.360;2023-05-19T07:38:29;95737.19;;;17.52;59.56
36192;BME280;22233;42.708;23.360;2023-05-19T07:40:55;95727.94;;;17.44;59.39
36192;BME280;22233;42.708;23.360;2023-05-19T07:43:20;95726.66;;;17.54;58.57
36192;BME280;22233;42.708;23.360;2023-05-19T07:45:46;95735.50;;;17.47;59.33
36192;BME280;22233;42.708;23.360;2023-05-19T07:48:11;95729.00;;;17.68;59.58
36192;BME280;22233;42.708;23.360;2023-05-19T07:50:37;95742.53;;;17.61;60.75
36192;BME280;22233;42.708;23.360;2023-05-19T07:53:03;95739.47;;;17.50;60.57
36192;BME280;22233;42.708;23.360;2023-05-19T07:55:28;95730.00;;;17.75;59.72
36192;BME280;22233;42.708;23.360;2023-05-19T07:57:54;95725.56;;;18.15;59.08
36192;BME280;22233;42.708;23.360;2023-05-19T08:00:20;95726.97;;;18.25;59.17
36192;BME280;22233;42.708;23.360;2023-05-19T08:02:45;95726.25;;;18.44;57.88
36192;BME280;22233;42.708;23.360;2023-05-19T08:05:11;95730.97;;;18.11;57.73
36192;BME280;22233;42.708;23.360;2023-05-19T08:07:37;95734.69;;;18.19;57.58
36192;BME280;22233;42.708;23.360;2023-05-19T08:10:02;95721.09;;;18.42;57.89
36192;BME280;22233;42.708;23.360;2023-05-19T08:12:28;95732.63;;;18.80;57.65
36192;BME280;22233;42.708;23.360;2023-05-19T08:14:53;95734.16;;;19.12;57.46
36192;BME280;22233;42.708;23.360;2023-05-19T08:17:19;95730.66;;;18.96;56.53
36192;BME280;22233;42.708;23.360;2023-05-19T08:19:44;95738.13;;;18.64;57.85
36192;BME280;22233;42.708;23.360;2023-05-19T08:22:10;95726.94;;;18.72;57.44
36192;BME280;22233;42.708;23.360;2023-05-19T08:24:35;95725.84;;;18.77;57.36
36192;BME280;22233;42.708;23.360;2023-05-19T08:27:01;95725.78;;;18.73;57.57
36192;BME280;22233;42.708;23.360;2023-05-19T08:29:26;95720.91;;;18.83;57.53
36192;BME280;22233;42.708;23.360;2023-05-19T08:31:52;95726.22;;;18.75;57.29
36192;BME280;22233;42.708;23.360;2023-05-19T08:34:20;95719.50;;;19.08;57.43
36192;BME280;22233;42.708;23.360;2023-05-19T08:36:46;95716.16;;;19.58;56.82
36192;BME280;22233;42.708;23.360;2023-05-19T08:39:12;95711.44;;;19.74;55.84
36192;BME280;22233;42.708;23.360;2023-05-19T08:41:38;95723.06;;;19.87;54.89
36192;BME280;22233;42.708;23.360;2023-05-19T08:44:04;95720.09;;;19.56;54.88
36192;BME280;22233;42.708;23.360;2023-05-19T08:46:29;95711.41;;;19.35;56.24
36192;BME280;22233;42.708;23.360;2023-05-19T08:49:02;95715.75;;;19.75;54.48
36192;BME280;22233;42.708;23.360;2023-05-19T08:54:00;95715.19;;;20.08;55.18
36192;BME280;22233;42.708;23.360;2023-05-19T08:56:29;95723.22;;;20.17;56.36
36192;BME280;22233;42.708;23.360;2023-05-19T08:58:56;95719.47;;;20.52;55.09
36192;BME280;22233;42.708;23.360;2023-05-19T09:01:24;95719.47;;;20.52;55.05
36192;BME280;22233;42.708;23.360;2023-05-19T09:03:53;95707.97;;;20.00;54.75
36192;BME280;22233;42.708;23.360;2023-05-19T09:06:19;95712.16;;;20.40;53.84
36192;BME280;22233;42.708;23.360;2023-05-19T09:08:45;95711.59;;;20.54;53.02
36192;BME280;22233;42.708;23.360;2023-05-19T09:11:11;95708.47;;;20.79;54.32
36192;BME280;22233;42.708;23.360;2023-05-19T09:13:37;95698.06;;;20.95;53.99
36192;BME280;22233;42.708;23.360;2023-05-19T09:16:03;95703.44;;;21.14;52.76
36192;BME280;22233;42.708;23.360;2023-05-19T09:18:29;95705.78;;;21.12;52.37
36192;BME280;22233;42.708;23.360;2023-05-19T09:21:04;95688.69;;;21.33;52.80
36192;BME280;22233;42.708;23.360;2023-05-19T09:23:31;95702.66;;;21.44;51.16
36192;BME280;22233;42.708;23.360;2023-05-19T09:26:01;95697.50;;;21.77;50.83
36192;BME280;22233;42.708;23.360;2023-05-19T09:28:33;95691.03;;;21.62;51.66
36192;BME280;22233;42.708;23.360;2023-05-19T09:31:04;95689.78;;;21.25;52.21
36192;BME280;22233;42.708;23.360;2023-05-19T09:33:32;95684.72;;;21.01;53.29
36192;BME280;22233;42.708;23.360;2023-05-19T09:35:58;95681.31;;;21.11;52.65
36192;BME280;22233;42.708;23.360;2023-05-19T09:38:24;95690.63;;;21.60;52.31
36192;BME280;22233;42.708;23.360;2023-05-19T09:40:51;95681.84;;;21.88;50.97
36192;BME280;22233;42.708;23.360;2023-05-19T09:43:17;95676.44;;;22.02;51.40
36192;BME280;22233;42.708;23.360;2023-05-19T09:45:42;95668.22;;;22.09;50.47
36192;BME280;22233;42.708;23.360;2023-05-19T09:48:08;95681.03;;;22.28;50.21
36192;BME280;22233;42.708;23.360;2023-05-19T09:50:34;95678.06;;;22.48;50.51
36192;BME280;22233;42.708;23.360;2023-05-19T09:53:00;95673.44;;;22.66;49.65
36192;BME280;22233;42.708;23.360;2023-05-19T09:55:27;95679.75;;;22.67;48.49
36192;BME280;22233;42.708;23.360;2023-05-19T09:57:56;95675.84;;;22.75;49.29
36192;BME280;22233;42.708;23.360;2023-05-19T10:00:22;95680.66;;;22.85;47.41
36192;BME280;22233;42.708;23.360;2023-05-19T10:02:48;95667.03;;;23.18;47.00
36192;BME280;22233;42.708;23.360;2023-05-19T10:05:16;95664.69;;;23.27;46.62
36192;BME280;22233;42.708;23.360;2023-05-19T10:07:50;95670.97;;;23.13;48.16
36192;BME280;22233;42.708;23.360;2023-05-19T10:10:17;95677.38;;;23.24;47.51
36192;BME280;22233;42.708;23.360;2023-05-19T10:12:45;95656.72;;;23.11;46.04
36192;BME280;22233;42.708;23.360;2023-05-19T10:15:17;95663.03;;;23.04;47.18
36192;BME280;22233;42.708;23.360;2023-05-19T10:17:44;95657.34;;;22.86;47.68
36192;BME280;22233;42.708;23.360;2023-05-19T10:20:10;95663.84;;;23.16;48.13
36192;BME280;22233;42.708;23.360;2023-05-19T10:22:40;95659.56;;;23.36;47.22
36192;BME280;22233;42.708;23.360;2023-05-19T10:25:07;95654.78;;;23.26;47.78
36192;BME280;22233;42.708;23.360;2023-05-19T10:27:39;95653.50;;;23.05;48.44
36192;BME280;22233;42.708;23.360;2023-05-19T10:30:12;95658.84;;;23.46;46.29
36192;BME280;22233;42.708;23.360;2023-05-19T10:32:40;95649.78;;;23.64;46.54
36192;BME280;22233;42.708;23.360;2023-05-19T10:35:19;95645.06;;;23.75;45.28
36192;BME280;22233;42.708;23.360;2023-05-19T10:45:46;95643.50;;;23.88;43.54
36192;BME280;22233;42.708;23.360;2023-05-19T10:48:14;95647.53;;;24.09;44.04
36192;BME280;22233;42.708;23.360;2023-05-19T10:50:42;95657.41;;;24.10;43.71
36192;BME280;22233;42.708;23.360;2023-05-19T10:53:13;95647.84;;;23.75;43.05
36192;BME280;22233;42.708;23.360;2023-05-19T10:55:50;95629.97;;;23.65;43.62
36192;BME280;22233;42.708;23.360;2023-05-19T11:01:17;95628.03;;;23.77;43.53
36192;BME280;22233;42.708;23.360;2023-05-19T11:03:47;95630.84;;;24.30;42.97
36192;BME280;22233;42.708;23.360;2023-05-19T11:06:30;95632.81;;;24.41;41.20
36192;BME280;22233;42.708;23.360;2023-05-19T11:11:41;95639.22;;;24.52;43.79
36192;BME280;22233;42.708;23.360;2023-05-19T11:14:10;95638.38;;;24.84;42.13
36192;BME280;22233;42.708;23.360;2023-05-19T11:16:38;95644.63;;;25.17;41.28
36192;BME280;22233;42.708;23.360;2023-05-19T11:19:05;95632.31;;;25.14;41.16
36192;BME280;22233;42.708;23.360;2023-05-19T11:21:47;95637.47;;;25.19;42.27
36192;BME280;22233;42.708;23.360;2023-05-19T11:29:50;95641.53;;;24.86;39.50
36192;BME280;22233;42.708;23.360;2023-05-19T11:32:17;95635.63;;;24.59;40.75
36192;BME280;22233;42.708;23.360;2023-05-19T11:34:46;95628.88;;;24.52;42.12
36192;BME280;22233;42.708;23.360;2023-05-19T11:37:12;95635.63;;;24.73;42.08
36192;BME280;22233;42.708;23.360;2023-05-19T11:39:38;95636.00;;;24.61;40.97
36192;BME280;22233;42.708;23.360;2023-05-19T11:42:04;95634.81;;;24.47;40.71
36192;BME280;22233;42.708;23.360;2023-05-19T11:44:30;95643.97;;;24.55;42.52
36192;BME280;22233;42.708;23.360;2023-05-19T11:46:57;95632.47;;;24.17;42.25
36192;BME280;22233;42.708;23.360;2023-05-19T11:49:23;95618.97;;;24.19;40.70
36192;BME280;22233;42.708;23.360;2023-05-19T11:51:48;95626.53;;;24.19;41.01
36192;BME280;22233;42.708;23.360;2023-05-19T11:54:14;95642.72;;;23.88;43.00
36192;BME280;22233;42.708;23.360;2023-05-19T11:56:42;95644.53;;;23.37;41.19
36192;BME280;22233;42.708;23.360;2023-05-19T11:59:08;95643.56;;;23.01;42.15
36192;BME280;22233;42.708;23.360;2023-05-19T12:01:34;95662.34;;;22.18;47.71
36192;BME280;22233;42.708;23.360;2023-05-19T12:04:18;95667.25;;;20.93;48.41
36192;BME280;22233;42.708;23.360;2023-05-19T12:06:43;95693.66;;;20.41;48.75
36192;BME280;22233;42.708;23.360;2023-05-19T12:09:09;95677.59;;;19.77;49.81
36192;BME280;22233;42.708;23.360;2023-05-19T12:11:36;95692.56;;;19.76;50.65
36192;BME280;22233;42.708;23.360;2023-05-19T12:14:02;95677.19;;;19.36;51.02
36192;BME280;22233;42.708;23.360;2023-05-19T12:16:33;95698.63;;;19.07;52.94
36192;BME280;22233;42.708;23.360;2023-05-19T12:19:00;95697.84;;;19.07;52.73
36192;BME280;22233;42.708;23.360;2023-05-19T12:21:26;95703.03;;;18.92;52.66
36192;BME280;22233;42.708;23.360;2023-05-19T12:23:51;95711.75;;;19.14;53.01
36192;BME280;22233;42.708;23.360;2023-05-19T12:26:17;95704.13;;;19.07;53.33
36192;BME280;22233;42.708;23.360;2023-05-19T12:28:46;95696.09;;;18.99;52.95
36192;BME280;22233;42.708;23.360;2023-05-19T12:31:12;95693.28;;;18.79;52.79
36192;BME280;22233;42.708;23.360;2023-05-19T12:33:37;95692.59;;;18.66;53.60
36192;BME280;22233;42.708;23.360;2023-05-19T12:36:04;95693.94;;;18.41;55.62
36192;BME280;22233;42.708;23.360;2023-05-19T12:38:29;95691.88;;;18.69;55.03
36192;BME280;22233;42.708;23.360;2023-05-19T12:40:57;95675.75;;;18.52;55.51
36192;BME280;22233;42.708;23.360;2023-05-19T12:43:23;95669.97;;;18.57;54.40
36192;BME280;22233;42.708;23.360;2023-05-19T12:45:49;95668.97;;;18.30;54.24
36192;BME280;22233;42.708;23.360;2023-05-19T12:48:15;95669.22;;;18.09;55.55
36192;BME280;22233;42.708;23.360;2023-05-19T12:50:41;95667.38;;;18.13;56.43
36192;BME280;22233;42.708;23.360;2023-05-19T12:53:08;95664.16;;;18.11;55.41
36192;BME280;22233;42.708;23.360;2023-05-19T12:55:41;95652.09;;;18.31;55.65
36192;BME280;22233;42.708;23.360;2023-05-19T12:58:08;95648.63;;;18.34;54.37
36192;BME280;22233;42.708;23.360;2023-05-19T13:00:40;95644.88;;;18.94;53.66
36192;BME280;22233;42.708;23.360;2023-05-19T13:03:07;95652.56;;;19.24;52.21
36192;BME280;22233;42.708;23.360;2023-05-19T13:05:38;95655.56;;;19.58;51.23
36192;BME280;22233;42.708;23.360;2023-05-19T13:08:05;95643.63;;;19.50;50.61
36192;BME280;22233;42.708;23.360;2023-05-19T13:10:32;95634.66;;;19.99;50.49
36192;BME280;22233;42.708;23.360;2023-05-19T13:12:58;95653.66;;;20.27;49.36
36192;BME280;22233;42.708;23.360;2023-05-19T13:15:27;95647.78;;;20.55;48.41
36192;BME280;22233;42.708;23.360;2023-05-19T13:17:53;95628.84;;;21.11;46.61
36192;BME280;22233;42.708;23.360;2023-05-19T13:20:20;95644.41;;;21.60;46.06
36192;BME280;22233;42.708;23.360;2023-05-19T13:22:46;95637.25;;;22.38;44.37
36192;BME280;22233;42.708;23.360;2023-05-19T13:25:12;95627.69;;;22.31;44.70
36192;BME280;22233;42.708;23.360;2023-05-19T13:27:38;95632.84;;;22.96;42.67
36192;BME280;22233;42.708;23.360;2023-05-19T13:30:03;95628.72;;;23.41;41.94